createdAt,value
2023-04-03T00:00:47.902Z,4.46
2023-04-03T00:03:15.654Z,4.87
2023-04-03T00:05:43.354Z,4.53
2023-04-03T00:08:11.023Z,4.82
2023-04-03T00:10:39.666Z,4.51
2023-04-03T00:13:08.582Z,4.51
2023-04-03T00:15:38.005Z,4.24
2023-04-03T00:18:06.433Z,4.44
2023-04-03T00:20:34.774Z,4.46
2023-04-03T00:23:03.466Z,4.33
2023-04-03T00:25:31.108Z,4.44
2023-04-03T00:27:58.815Z,4.05
2023-04-03T00:30:26.579Z,4.29
2023-04-03T00:32:55.854Z,4.52
2023-04-03T00:35:24.430Z,4.12
2023-04-03T00:37:53.530Z,3.83
2023-04-03T00:40:22.098Z,3.74
2023-04-03T00:42:51.167Z,3.99
2023-04-03T00:45:38.079Z,3.84
2023-04-03T00:48:09.233Z,4.23
2023-04-03T00:50:42.015Z,4.11
2023-04-03T00:53:14.188Z,4.11
2023-04-03T00:55:42.468Z,4.19
2023-04-03T00:58:10.697Z,4.10
2023-04-03T01:00:39.654Z,3.94
2023-04-03T01:03:08.715Z,3.95
2023-04-03T01:05:36.552Z,4.01
2023-04-03T01:08:04.392Z,4.25
2023-04-03T01:10:32.165Z,3.96
2023-04-03T01:13:01.935Z,3.49
2023-04-03T01:15:31.280Z,3.91
2023-04-03T01:17:59.625Z,4.09
2023-04-03T01:21:09.480Z,3.82
2023-04-03T01:23:51.335Z,3.79
2023-04-03T01:26:19.047Z,4.08
2023-04-03T01:28:47.631Z,3.90
2023-04-03T01:31:21.309Z,3.89
2023-04-03T01:33:50.850Z,3.73
2023-04-03T01:36:20.641Z,3.74
2023-04-03T01:38:48.416Z,3.75
2023-04-03T01:41:16.579Z,3.65
2023-04-03T01:43:44.430Z,3.85
2023-04-03T01:46:12.195Z,3.76
2023-04-03T01:48:40.140Z,3.70
2023-04-03T01:51:09.204Z,3.70
2023-04-03T01:53:36.919Z,3.71
2023-04-03T01:56:05.061Z,3.68
2023-04-03T01:58:32.720Z,3.56
2023-04-03T02:01:00.458Z,3.64
2023-04-03T02:03:28.258Z,3.42
2023-04-03T02:05:56.259Z,3.38
2023-04-03T02:08:25.380Z,3.57
2023-04-03T02:10:53.631Z,3.38
2023-04-03T02:13:21.544Z,3.24
2023-04-03T02:15:49.467Z,2.95
2023-04-03T02:18:17.334Z,3.04
2023-04-03T02:20:45.059Z,3.04
2023-04-03T02:23:12.989Z,3.34
2023-04-03T02:25:42.062Z,2.95
2023-04-03T02:28:09.805Z,3.14
2023-04-03T02:30:39.009Z,3.31
2023-04-03T02:33:06.918Z,3.26
2023-04-03T02:35:34.666Z,3.19
2023-04-03T02:38:02.396Z,3.11
2023-04-03T02:40:30.160Z,2.93
2023-04-03T02:42:59.198Z,2.96
2023-04-03T02:45:26.986Z,2.92
2023-04-03T02:47:54.710Z,3.06
2023-04-03T02:50:22.473Z,2.86
2023-04-03T02:52:50.337Z,2.88
2023-04-03T02:55:18.305Z,2.80
2023-04-03T02:57:46.037Z,2.80
2023-04-03T03:00:16.167Z,2.89
2023-04-03T03:02:43.900Z,2.87
2023-04-03T03:05:11.579Z,2.92
2023-04-03T03:07:39.383Z,2.39
2023-04-03T03:10:07.748Z,2.57
2023-04-03T03:12:35.476Z,2.70
2023-04-03T03:15:03.215Z,2.50
2023-04-03T03:17:32.331Z,2.66
2023-04-03T03:20:00.140Z,2.42
2023-04-03T03:22:28.203Z,2.62
2023-04-03T03:24:55.930Z,2.37
2023-04-03T03:27:23.692Z,2.51
2023-04-03T03:29:51.370Z,2.47
2023-04-03T03:32:19.082Z,2.39
2023-04-03T03:34:48.125Z,2.53
2023-04-03T03:37:15.813Z,2.46
2023-04-03T03:39:43.467Z,2.50
2023-04-03T03:42:11.094Z,2.26
2023-04-03T03:44:38.795Z,2.47
2023-04-03T03:47:07.155Z,2.20
2023-04-03T03:49:34.884Z,1.97
2023-04-03T03:52:03.977Z,2.06
2023-04-03T03:54:31.656Z,1.74
2023-04-03T03:56:59.367Z,1.98
2023-04-03T03:59:27.167Z,1.92
2023-04-03T04:01:55.213Z,1.90
2023-04-03T04:04:23.102Z,2.03
2023-04-03T04:06:51.524Z,1.84
2023-04-03T04:09:20.647Z,1.97
2023-04-03T04:11:48.346Z,1.81
2023-04-03T04:14:16.233Z,1.84
2023-04-03T04:16:43.949Z,1.86
2023-04-03T04:19:11.738Z,1.56
2023-04-03T04:21:39.400Z,2.02
2023-04-03T04:24:07.922Z,1.98
2023-04-03T04:26:37.124Z,2.01
2023-04-03T04:29:04.900Z,1.69
2023-04-03T04:31:32.706Z,2.00
2023-04-03T04:34:00.448Z,1.70
2023-04-03T04:36:28.316Z,1.77
2023-04-03T04:38:56.537Z,1.73
2023-04-03T04:41:24.588Z,1.48
2023-04-03T04:43:54.430Z,1.71
2023-04-03T04:46:22.177Z,1.64
2023-04-03T04:48:50.290Z,1.90
2023-04-03T04:51:18.008Z,1.86
2023-04-03T04:53:46.048Z,1.57
2023-04-03T04:56:14.043Z,1.69
2023-04-03T04:58:41.716Z,1.77
2023-04-03T05:01:11.879Z,1.76
2023-04-03T05:03:39.608Z,1.64
2023-04-03T05:06:07.873Z,1.48
2023-04-03T05:08:35.600Z,1.63
2023-04-03T05:11:03.394Z,1.39
2023-04-03T05:13:31.174Z,1.41
2023-04-03T05:15:58.935Z,1.54
2023-04-03T05:18:28.075Z,1.52
2023-04-03T05:20:55.740Z,1.66
2023-04-03T05:23:23.426Z,1.50
2023-04-03T05:25:51.152Z,1.55
2023-04-03T05:28:19.109Z,1.55
2023-04-03T05:30:46.787Z,1.58
2023-04-03T05:33:15.108Z,1.65
2023-04-03T05:35:45.021Z,1.53
2023-04-03T05:38:13.079Z,1.66
2023-04-03T05:40:40.974Z,1.62
2023-04-03T05:43:08.864Z,1.41
2023-04-03T05:45:36.659Z,1.90
2023-04-03T05:48:04.652Z,1.66
2023-04-03T05:50:32.857Z,1.75
2023-04-03T05:53:02.555Z,2.17
2023-04-03T05:55:30.203Z,2.12
2023-04-03T05:57:57.874Z,2.16
2023-04-03T06:00:25.702Z,1.79
2023-04-03T06:02:53.610Z,1.77
2023-04-03T06:05:21.465Z,2.10
2023-04-03T06:07:50.478Z,2.23
2023-04-03T06:10:21.173Z,2.14
2023-04-03T06:12:49.004Z,1.91
2023-04-03T06:15:17.973Z,1.90
2023-04-03T06:17:46.054Z,2.06
2023-04-03T06:20:14.470Z,2.50
2023-04-03T06:22:42.931Z,2.58
2023-04-03T06:25:11.849Z,3.00
2023-04-03T06:27:41.060Z,2.51
2023-04-03T06:30:09.740Z,2.01
2023-04-03T06:32:37.483Z,2.80
2023-04-03T06:35:06.108Z,2.45
2023-04-03T06:37:33.878Z,2.53
2023-04-03T06:40:02.383Z,2.91
2023-04-03T06:42:30.119Z,2.63
2023-04-03T06:44:59.147Z,2.84
2023-04-03T06:47:27.033Z,2.83
2023-04-03T06:49:54.898Z,3.11
2023-04-03T06:52:22.726Z,2.70
2023-04-03T06:54:50.440Z,2.81
2023-04-03T06:57:18.545Z,3.35
2023-04-03T06:59:46.388Z,3.48
2023-04-03T07:02:15.812Z,3.33
2023-04-03T07:04:43.566Z,3.09
2023-04-03T07:07:11.611Z,3.01
2023-04-03T07:09:39.322Z,3.40
2023-04-03T07:12:08.282Z,3.76
2023-04-03T07:14:36.014Z,3.32
2023-04-03T07:17:03.706Z,4.03
2023-04-03T07:19:32.962Z,4.05
2023-04-03T07:22:00.813Z,3.90
2023-04-03T07:24:28.565Z,3.97
2023-04-03T07:26:56.533Z,4.40
2023-04-03T07:29:24.816Z,4.16
2023-04-03T07:31:53.048Z,4.81
2023-04-03T07:34:20.988Z,4.06
2023-04-03T07:36:50.096Z,3.87
2023-04-03T07:39:17.861Z,4.22
2023-04-03T07:41:45.534Z,3.86
2023-04-03T07:44:13.332Z,4.32
2023-04-03T07:46:41.906Z,4.49
2023-04-03T07:49:09.632Z,4.42
2023-04-03T07:51:37.408Z,4.76
2023-04-03T07:54:06.564Z,4.66
2023-04-03T07:56:34.495Z,4.86
2023-04-03T07:59:02.276Z,4.80
2023-04-03T08:01:33.411Z,4.97
2023-04-03T08:04:01.541Z,5.39
2023-04-03T08:06:44.781Z,5.04
2023-04-03T08:09:16.626Z,5.92
2023-04-03T08:11:45.350Z,4.86
2023-04-03T08:14:17.367Z,4.86
2023-04-03T08:16:45.833Z,5.42
2023-04-03T08:19:22.471Z,5.33
2023-04-03T08:21:53.540Z,5.62
2023-04-03T08:24:22.700Z,5.67
2023-04-03T08:26:50.644Z,5.73
2023-04-03T08:29:18.459Z,6.39
2023-04-03T08:31:47.266Z,6.09
2023-04-03T08:34:15.572Z,6.27
2023-04-03T08:36:43.668Z,6.25
2023-04-03T08:39:12.182Z,6.48
2023-04-03T08:41:43.465Z,6.46
2023-04-03T08:44:19.444Z,5.99
2023-04-03T08:46:58.980Z,6.86
2023-04-03T08:49:29.247Z,6.97
2023-04-03T08:51:57.866Z,7.37
2023-04-03T08:54:31.390Z,6.62
2023-04-03T08:57:03.452Z,6.89
2023-04-03T08:59:35.041Z,6.55
2023-04-03T09:02:06.389Z,6.35
2023-04-03T09:04:36.049Z,6.16
2023-04-03T09:07:09.546Z,6.68
2023-04-03T09:09:40.790Z,6.81
2023-04-03T09:12:17.701Z,6.33
2023-04-03T09:14:49.850Z,6.67
2023-04-03T09:17:23.502Z,6.88
2023-04-03T09:19:57.092Z,6.84
2023-04-03T09:22:28.068Z,6.88
2023-04-03T09:25:01.118Z,7.21
2023-04-03T09:27:30.563Z,7.61
2023-04-03T09:29:58.955Z,7.39
2023-04-03T09:32:29.206Z,7.95
2023-04-03T09:35:01.549Z,7.37
2023-04-03T09:37:41.149Z,7.19
2023-04-03T09:40:30.798Z,7.97
2023-04-03T09:43:01.902Z,7.44
2023-04-03T09:45:32.907Z,7.36
2023-04-03T09:48:15.472Z,7.50
2023-04-03T09:51:00.183Z,8.10
2023-04-03T09:53:34.160Z,7.74
2023-04-03T09:56:04.247Z,7.68
2023-04-03T09:58:49.152Z,7.39
2023-04-03T10:01:28.205Z,7.31
2023-04-03T10:04:11.278Z,7.73
2023-04-03T10:06:44.356Z,7.91
2023-04-03T10:09:30.752Z,7.97
2023-04-03T10:12:05.707Z,8.05
2023-04-03T10:14:36.524Z,7.03
2023-04-03T10:17:15.324Z,7.70
2023-04-03T10:19:46.332Z,8.00
2023-04-03T10:22:30.837Z,7.75
2023-04-03T10:25:05.577Z,7.40
2023-04-03T10:27:42.285Z,7.70
2023-04-03T10:30:22.889Z,7.72
2023-04-03T10:32:59.532Z,7.84
2023-04-03T10:35:35.704Z,8.04
2023-04-03T10:38:07.447Z,8.54
2023-04-03T10:40:42.216Z,8.15
2023-04-03T10:43:14.005Z,7.61
2023-04-03T10:45:53.916Z,8.04
2023-04-03T10:48:29.009Z,7.94
2023-04-03T10:51:00.823Z,7.69
2023-04-03T10:53:33.887Z,8.36
2023-04-03T10:56:05.974Z,8.88
2023-04-03T10:58:35.571Z,8.26
2023-04-03T11:01:09.026Z,7.87
2023-04-03T11:03:39.365Z,8.14
2023-04-03T11:06:09.773Z,8.45
2023-04-03T11:08:41.460Z,8.24
2023-04-03T11:11:12.099Z,7.77
2023-04-03T11:13:43.642Z,8.48
2023-04-03T11:16:17.541Z,8.74
2023-04-03T11:18:47.841Z,9.00
2023-04-03T11:21:18.732Z,8.90
2023-04-03T11:23:49.898Z,9.03
2023-04-03T11:26:21.922Z,9.40
2023-04-03T11:28:54.804Z,9.04
2023-04-03T11:31:35.173Z,8.51
2023-04-03T11:34:10.365Z,9.14
2023-04-03T11:36:42.994Z,8.96
2023-04-03T11:39:20.317Z,9.22
2023-04-03T11:41:48.152Z,9.39
2023-04-03T11:44:33.051Z,9.39
2023-04-03T11:47:03.908Z,9.51
2023-04-03T11:50:00.728Z,9.72
2023-04-03T11:53:03.290Z,9.53
2023-04-03T11:55:45.614Z,9.57
2023-04-03T11:58:18.931Z,8.97
2023-04-03T12:01:10.495Z,9.38
2023-04-03T12:04:08.126Z,8.81
2023-04-03T12:07:14.786Z,8.79
2023-04-03T12:10:04.952Z,9.65
2023-04-03T12:12:38.947Z,8.70
2023-04-03T12:15:28.637Z,8.83
2023-04-03T12:17:56.592Z,8.44
2023-04-03T12:21:04.356Z,9.37
2023-04-03T12:23:34.087Z,8.63
2023-04-03T12:26:07.516Z,8.76
2023-04-03T12:28:40.714Z,8.96
2023-04-03T12:31:10.564Z,9.11
2023-04-03T12:33:57.740Z,9.93
2023-04-03T12:36:30.517Z,9.65
2023-04-03T12:39:08.354Z,9.73
2023-04-03T12:41:47.386Z,9.15
2023-04-03T12:44:29.433Z,9.27
2023-04-03T12:46:57.197Z,9.05
2023-04-03T12:49:36.123Z,9.20
2023-04-03T12:52:05.712Z,9.47
2023-04-03T12:54:35.119Z,9.60
2023-04-03T12:57:15.475Z,9.48
2023-04-03T12:59:44.816Z,9.54
2023-04-03T13:02:22.207Z,9.76
2023-04-03T13:04:51.137Z,9.38
2023-04-03T13:07:28.363Z,9.72
2023-04-03T13:10:01.179Z,10.07
2023-04-03T13:12:31.911Z,10.57
2023-04-03T13:15:02.263Z,10.82
2023-04-03T13:17:30.473Z,10.06
2023-04-03T13:20:12.365Z,10.71
2023-04-03T13:22:49.318Z,10.39
2023-04-03T13:25:19.177Z,9.24
2023-04-03T13:27:48.287Z,9.33
2023-04-03T13:30:26.273Z,9.47
2023-04-03T13:32:54.844Z,9.20
2023-04-03T13:35:32.521Z,9.64
2023-04-03T13:38:03.034Z,9.63
2023-04-03T13:40:37.991Z,9.29
2023-04-03T13:43:21.996Z,9.82
2023-04-03T13:45:58.226Z,9.65
2023-04-03T13:48:26.606Z,9.83
2023-04-03T13:51:00.671Z,10.47
2023-04-03T13:53:29.330Z,9.61
2023-04-03T13:56:07.857Z,10.33
2023-04-03T13:58:38.739Z,10.03
2023-04-03T14:01:11.513Z,9.71
2023-04-03T14:03:46.110Z,9.95
2023-04-03T14:06:16.362Z,10.46
2023-04-03T14:08:44.557Z,9.76
2023-04-03T14:11:16.259Z,9.47
2023-04-03T14:13:46.158Z,9.46
2023-04-03T14:16:17.646Z,9.60
2023-04-03T14:18:46.132Z,9.48
2023-04-03T14:21:15.580Z,10.06
2023-04-03T14:23:43.388Z,10.13
2023-04-03T14:26:14.490Z,10.02
2023-04-03T14:28:44.016Z,10.50
2023-04-03T14:31:15.737Z,10.45
2023-04-03T14:33:43.598Z,9.57
2023-04-03T14:36:16.486Z,9.63
2023-04-03T14:38:44.790Z,9.60
2023-04-03T14:41:16.859Z,9.55
2023-04-03T14:43:45.593Z,10.25
2023-04-03T14:46:17.625Z,10.47
2023-04-03T14:48:45.974Z,10.00
2023-04-03T14:51:15.695Z,9.53
2023-04-03T14:53:45.865Z,9.93
2023-04-03T14:56:14.771Z,9.90
2023-04-03T14:58:42.580Z,10.28
2023-04-03T15:01:12.768Z,10.45
2023-04-03T15:03:41.958Z,10.29
2023-04-03T15:06:11.114Z,9.91
2023-04-03T15:08:38.836Z,9.38
2023-04-03T15:11:07.896Z,9.80
2023-04-03T15:13:35.603Z,9.46
2023-04-03T15:16:04.459Z,9.21
2023-04-03T15:18:36.408Z,9.60
2023-04-03T15:21:05.787Z,9.33
2023-04-03T15:23:33.540Z,9.91
2023-04-03T15:26:01.434Z,10.17
2023-04-03T15:28:31.247Z,9.66
2023-04-03T15:30:59.134Z,9.61
2023-04-03T15:33:27.524Z,9.97
2023-04-03T15:36:02.947Z,9.74
2023-04-03T15:38:39.034Z,9.63
2023-04-03T15:41:06.874Z,9.76
2023-04-03T15:43:36.114Z,10.21
2023-04-03T15:46:04.126Z,10.55
2023-04-03T15:48:31.987Z,10.85
2023-04-03T15:50:59.679Z,10.12
2023-04-03T15:53:27.741Z,10.82
2023-04-03T15:55:56.831Z,10.48
2023-04-03T15:58:24.517Z,10.55
2023-04-03T16:00:52.700Z,10.46
2023-04-03T16:03:22.575Z,10.59
2023-04-03T16:05:51.007Z,9.84
2023-04-03T16:08:18.955Z,9.79
2023-04-03T16:10:47.921Z,9.56
2023-04-03T16:13:17.029Z,9.76
2023-04-03T16:15:44.926Z,9.98
2023-04-03T16:18:14.384Z,9.92
2023-04-03T16:20:42.111Z,10.35
2023-04-03T16:23:09.793Z,10.04
2023-04-03T16:25:37.816Z,10.54
2023-04-03T16:28:06.245Z,10.42
2023-04-03T16:30:35.377Z,9.68
2023-04-03T16:33:03.799Z,9.84
2023-04-03T16:35:31.852Z,10.29
2023-04-03T16:37:59.591Z,9.76
2023-04-03T16:40:27.354Z,9.98
2023-04-03T16:42:55.085Z,10.25
2023-04-03T16:45:23.006Z,10.17
2023-04-03T16:47:52.183Z,10.67
2023-04-03T16:50:20.195Z,11.03
2023-04-03T16:52:48.582Z,10.70
2023-04-03T16:55:16.401Z,10.67
2023-04-03T16:57:44.100Z,10.62
2023-04-03T17:00:12.806Z,9.88
2023-04-03T17:02:41.044Z,10.27
2023-04-03T17:05:10.611Z,10.04
2023-04-03T17:07:38.342Z,9.94
2023-04-03T17:10:07.286Z,10.31
2023-04-03T17:12:35.018Z,10.40
2023-04-03T17:15:02.735Z,9.81
2023-04-03T17:17:30.621Z,10.13
2023-04-03T17:19:58.415Z,10.12
2023-04-03T17:22:27.684Z,9.61
2023-04-03T17:24:55.466Z,9.97
2023-04-03T17:27:23.239Z,9.68
2023-04-03T17:29:51.005Z,10.04
2023-04-03T17:32:41.069Z,10.23
2023-04-03T17:38:02.796Z,10.08
2023-04-03T17:40:30.592Z,9.83
2023-04-03T17:42:58.328Z,9.36
2023-04-03T17:45:26.180Z,9.51
2023-04-03T17:47:54.004Z,9.46
2023-04-03T17:50:21.914Z,9.60
2023-04-03T17:52:49.661Z,9.52
2023-04-03T17:55:19.013Z,9.41
2023-04-03T17:57:46.720Z,9.60
2023-04-03T18:00:16.381Z,9.32
2023-04-03T18:02:44.203Z,9.28
2023-04-03T18:05:12.045Z,9.24
2023-04-03T18:07:40.437Z,9.41
2023-04-03T18:10:09.701Z,9.26
2023-04-03T18:12:39.726Z,9.14
2023-04-03T18:15:08.409Z,9.19
2023-04-03T18:17:36.211Z,9.04
2023-04-03T18:20:04.243Z,8.94
2023-04-03T18:22:32.168Z,8.75
2023-04-03T18:25:00.216Z,8.81
2023-04-03T18:27:28.381Z,8.79
2023-04-03T18:30:00.639Z,8.79
2023-04-03T18:32:28.491Z,8.73
2023-04-03T18:34:57.276Z,8.67
2023-04-03T18:37:25.161Z,8.67
2023-04-03T18:39:53.117Z,8.71
2023-04-03T18:42:23.836Z,8.63
2023-04-03T18:44:53.744Z,8.51
2023-04-03T18:47:22.902Z,8.33
2023-04-03T18:49:50.843Z,8.38
2023-04-03T18:52:18.562Z,8.47
2023-04-03T18:54:46.323Z,8.23
2023-04-03T18:57:14.043Z,8.16
2023-04-03T18:59:41.955Z,8.03
2023-04-03T19:02:10.894Z,7.59
2023-04-03T19:04:39.998Z,7.58
2023-04-03T19:07:08.943Z,7.53
2023-04-03T19:09:38.641Z,7.56
2023-04-03T19:12:06.760Z,7.48
2023-04-03T19:14:34.406Z,7.35
2023-04-03T19:17:03.055Z,6.98
2023-04-03T19:19:31.029Z,6.88
2023-04-03T19:22:00.108Z,6.90
2023-04-03T19:24:27.832Z,6.80
2023-04-03T19:26:55.548Z,6.78
2023-04-03T19:29:23.351Z,6.75
2023-04-03T19:31:51.534Z,6.69
2023-04-03T19:34:19.709Z,6.68
2023-04-03T19:36:48.041Z,6.53
2023-04-03T19:39:17.201Z,6.40
2023-04-03T19:41:46.218Z,6.16
2023-04-03T19:44:14.287Z,6.17
2023-04-03T19:46:41.997Z,6.07
2023-04-03T19:49:19.240Z,6.19
2023-04-03T19:51:46.994Z,6.29
2023-04-03T19:54:14.704Z,6.35
2023-04-03T19:56:43.818Z,6.42
2023-04-03T19:59:11.712Z,6.60
2023-04-03T20:01:39.610Z,6.40
2023-04-03T20:04:07.539Z,6.57
2023-04-03T20:06:36.754Z,6.52
2023-04-03T20:09:04.583Z,6.68
2023-04-03T20:11:32.280Z,6.55
2023-04-03T20:14:01.352Z,6.31
2023-04-03T20:16:29.623Z,6.40
2023-04-03T20:18:57.963Z,6.36
2023-04-03T20:21:29.722Z,6.31
2023-04-03T20:23:57.400Z,6.22
2023-04-03T20:26:27.260Z,6.23
2023-04-03T20:28:56.353Z,6.15
2023-04-03T20:31:26.792Z,6.29
2023-04-03T20:33:54.490Z,6.10
2023-04-03T20:36:23.539Z,6.32
2023-04-03T20:38:52.452Z,6.41
2023-04-03T20:41:20.397Z,6.21
2023-04-03T20:43:48.344Z,6.08
2023-04-03T20:46:19.535Z,5.94
2023-04-03T20:48:48.907Z,6.29
2023-04-03T20:51:18.291Z,6.17
2023-04-03T20:53:46.230Z,6.15
2023-04-03T20:56:14.363Z,6.16
2023-04-03T20:58:43.682Z,6.13
2023-04-03T21:01:16.182Z,5.92
2023-04-03T21:03:46.356Z,6.19
2023-04-03T21:06:51.915Z,5.99
2023-04-03T21:09:56.956Z,6.02
2023-04-03T21:13:02.068Z,6.16
2023-04-03T21:15:47.793Z,5.78
2023-04-03T21:18:31.936Z,5.64
2023-04-03T21:20:59.614Z,5.79
2023-04-03T21:23:28.393Z,5.54
2023-04-03T21:25:56.230Z,5.09
2023-04-03T21:28:26.217Z,5.52
2023-04-03T21:30:53.926Z,5.63
2023-04-03T21:33:23.058Z,5.53
2023-04-03T21:35:57.529Z,5.41
2023-04-03T21:38:26.023Z,5.54
2023-04-03T21:40:57.471Z,5.45
2023-04-03T21:43:25.406Z,5.62
2023-04-03T21:45:54.399Z,5.63
2023-04-03T21:48:23.844Z,5.49
2023-04-03T21:50:53.679Z,5.27
2023-04-03T21:53:22.435Z,5.19
2023-04-03T21:55:57.321Z,5.38
2023-04-03T21:58:29.396Z,5.16
2023-04-03T22:00:57.156Z,4.87
2023-04-03T22:03:26.257Z,5.13
2023-04-03T22:05:54.138Z,5.38
2023-04-03T22:08:21.924Z,5.15
2023-04-03T22:10:49.608Z,5.22
2023-04-03T22:13:17.343Z,5.46
2023-04-03T22:15:48.231Z,5.21
2023-04-03T22:18:16.252Z,5.21
2023-04-03T22:20:45.480Z,5.10
2023-04-03T22:23:13.224Z,5.18
2023-04-03T22:25:40.930Z,5.16
2023-04-03T22:28:08.566Z,4.85
2023-04-03T22:30:36.451Z,4.98
2023-04-03T22:33:04.195Z,4.83
2023-04-03T22:35:32.284Z,5.11
2023-04-03T22:38:01.479Z,5.04
2023-04-03T22:40:29.188Z,5.16
2023-04-03T22:42:56.929Z,4.99
2023-04-03T22:45:24.641Z,5.10
2023-04-03T22:47:52.752Z,4.79
2023-04-03T22:50:20.528Z,4.89
2023-04-03T22:52:48.730Z,4.88
2023-04-03T22:55:19.546Z,5.01
2023-04-03T22:57:47.687Z,4.87
2023-04-03T23:00:16.923Z,4.95
2023-04-03T23:02:44.617Z,4.91
2023-04-03T23:05:12.403Z,4.72
2023-04-03T23:07:40.053Z,4.70
2023-04-03T23:10:08.473Z,4.66
2023-04-03T23:12:40.084Z,4.51
2023-04-03T23:15:08.625Z,4.70
2023-04-03T23:17:37.410Z,4.69
2023-04-03T23:20:05.872Z,4.56
2023-04-03T23:22:33.538Z,4.66
2023-04-03T23:25:01.465Z,4.68
2023-04-03T23:27:29.192Z,4.77
2023-04-03T23:29:58.270Z,4.67
2023-04-03T23:32:26.025Z,4.52
2023-04-03T23:34:53.887Z,4.15
2023-04-03T23:37:21.664Z,4.35
2023-04-03T23:39:49.400Z,4.49
2023-04-03T23:42:17.390Z,4.04
2023-04-03T23:44:45.010Z,4.19
2023-04-03T23:47:14.041Z,4.21
2023-04-03T23:49:41.740Z,4.17
2023-04-03T23:52:09.454Z,4.29
2023-04-03T23:54:37.125Z,4.34
2023-04-03T23:57:04.917Z,4.44
2023-04-03T23:59:32.680Z,4.44
